sensor_id;sensor_type;location;lat;lon;timestamp;P1;durP1;ratioP1;P2;durP2;ratioP2
4963;SDS011;2497;47.410;9.740;2023-08-24T00:01:18;5.37;;;4.13;;
4963;SDS011;2497;47.410;9.740;2023-08-24T00:03:48;9.60;;;3.43;;
4963;SDS011;2497;47.410;9.740;2023-08-24T00:06:17;8.23;;;4.30;;
4963;SDS011;2497;47.410;9.740;2023-08-24T00:08:47;5.47;;;3.63;;
4963;SDS011;2497;47.410;9.740;2023-08-24T00:11:15;5.20;;;3.97;;
4963;SDS011;2497;47.410;9.740;2023-08-24T00:13:42;6.43;;;3.90;;
4963;SDS011;2497;47.410;9.740;2023-08-24T00:16:14;7.50;;;3.90;;
4963;SDS011;2497;47.410;9.740;2023-08-24T00:18:41;8.17;;;4.60;;
4963;SDS011;2497;47.410;9.740;2023-08-24T00:21:08;6.30;;;3.67;;
4963;SDS011;2497;47.410;9.740;2023-08-24T00:23:37;4.13;;;3.53;;
4963;SDS011;2497;47.410;9.740;2023-08-24T00:26:04;7.43;;;4.00;;
4963;SDS011;2497;47.410;9.740;2023-08-24T00:28:32;5.53;;;4.03;;
4963;SDS011;2497;47.410;9.740;2023-08-24T00:30:59;4.43;;;3.57;;
4963;SDS011;2497;47.410;9.740;2023-08-24T00:33:28;5.67;;;4.10;;
4963;SDS011;2497;47.410;9.740;2023-08-24T00:35:58;4.63;;;4.03;;
4963;SDS011;2497;47.410;9.740;2023-08-24T00:38:26;6.33;;;3.70;;
4963;SDS011;2497;47.410;9.740;2023-08-24T00:40:58;7.90;;;4.20;;
4963;SDS011;2497;47.410;9.740;2023-08-24T00:43:26;8.13;;;4.30;;
4963;SDS011;2497;47.410;9.740;2023-08-24T00:45:53;5.67;;;3.73;;
4963;SDS011;2497;47.410;9.740;2023-08-24T00:48:23;4.63;;;4.00;;
4963;SDS011;2497;47.410;9.740;2023-08-24T00:50:53;9.80;;;4.80;;
4963;SDS011;2497;47.410;9.740;2023-08-24T00:53:21;6.60;;;4.60;;
4963;SDS011;2497;47.410;9.740;2023-08-24T00:55:51;6.23;;;3.50;;
4963;SDS011;2497;47.410;9.740;2023-08-24T00:58:26;5.20;;;3.40;;
4963;SDS011;2497;47.410;9.740;2023-08-24T01:00:53;7.73;;;3.53;;
4963;SDS011;2497;47.410;9.740;2023-08-24T01:03:21;4.80;;;3.70;;
4963;SDS011;2497;47.410;9.740;2023-08-24T01:05:49;4.40;;;3.30;;
4963;SDS011;2497;47.410;9.740;2023-08-24T01:08:17;8.00;;;4.03;;
4963;SDS011;2497;47.410;9.740;2023-08-24T01:10:46;5.90;;;4.50;;
4963;SDS011;2497;47.410;9.740;2023-08-24T01:13:21;7.50;;;4.17;;
4963;SDS011;2497;47.410;9.740;2023-08-24T01:16:00;5.77;;;3.50;;
4963;SDS011;2497;47.410;9.740;2023-08-24T01:18:35;5.37;;;3.50;;
4963;SDS011;2497;47.410;9.740;2023-08-24T01:21:03;5.10;;;3.60;;
4963;SDS011;2497;47.410;9.740;2023-08-24T01:23:34;8.50;;;3.93;;
4963;SDS011;2497;47.410;9.740;2023-08-24T01:26:12;6.30;;;3.60;;
4963;SDS011;2497;47.410;9.740;2023-08-24T01:28:44;4.40;;;3.67;;
4963;SDS011;2497;47.410;9.740;2023-08-24T01:31:13;5.00;;;3.57;;
4963;SDS011;2497;47.410;9.740;2023-08-24T01:33:41;4.40;;;3.07;;
4963;SDS011;2497;47.410;9.740;2023-08-24T01:36:12;9.90;;;3.37;;
4963;SDS011;2497;47.410;9.740;2023-08-24T01:38:42;3.90;;;3.50;;
4963;SDS011;2497;47.410;9.740;2023-08-24T01:41:11;4.87;;;3.40;;
4963;SDS011;2497;47.410;9.740;2023-08-24T01:43:43;5.80;;;4.03;;
4963;SDS011;2497;47.410;9.740;2023-08-24T01:46:23;9.97;;;3.33;;
4963;SDS011;2497;47.410;9.740;2023-08-24T01:48:52;6.57;;;3.70;;
4963;SDS011;2497;47.410;9.740;2023-08-24T01:51:20;7.00;;;3.80;;
4963;SDS011;2497;47.410;9.740;2023-08-24T01:53:47;5.87;;;2.87;;
4963;SDS011;2497;47.410;9.740;2023-08-24T01:56:20;9.40;;;3.60;;
4963;SDS011;2497;47.410;9.740;2023-08-24T01:58:48;6.27;;;3.70;;
4963;SDS011;2497;47.410;9.740;2023-08-24T02:01:15;6.70;;;3.60;;
4963;SDS011;2497;47.410;9.740;2023-08-24T02:03:44;8.13;;;3.67;;
4963;SDS011;2497;47.410;9.740;2023-08-24T02:06:11;6.07;;;3.87;;
4963;SDS011;2497;47.410;9.740;2023-08-24T02:08:39;4.70;;;3.10;;
4963;SDS011;2497;47.410;9.740;2023-08-24T02:11:06;6.50;;;3.93;;
4963;SDS011;2497;47.410;9.740;2023-08-24T02:13:35;4.50;;;3.57;;
4963;SDS011;2497;47.410;9.740;2023-08-24T02:16:03;6.60;;;3.57;;
4963;SDS011;2497;47.410;9.740;2023-08-24T02:18:30;5.00;;;3.60;;
4963;SDS011;2497;47.410;9.740;2023-08-24T02:20:57;6.67;;;3.40;;
4963;SDS011;2497;47.410;9.740;2023-08-24T02:23:24;5.40;;;3.07;;
4963;SDS011;2497;47.410;9.740;2023-08-24T02:25:51;7.50;;;4.00;;
4963;SDS011;2497;47.410;9.740;2023-08-24T02:28:18;6.80;;;3.53;;
4963;SDS011;2497;47.410;9.740;2023-08-24T02:30:47;5.40;;;3.37;;
4963;SDS011;2497;47.410;9.740;2023-08-24T02:33:14;5.43;;;3.03;;
4963;SDS011;2497;47.410;9.740;2023-08-24T02:35:41;5.53;;;3.50;;
4963;SDS011;2497;47.410;9.740;2023-08-24T02:38:12;6.27;;;3.20;;
4963;SDS011;2497;47.410;9.740;2023-08-24T02:40:39;3.70;;;3.07;;
4963;SDS011;2497;47.410;9.740;2023-08-24T02:43:06;6.07;;;2.93;;
4963;SDS011;2497;47.410;9.740;2023-08-24T02:45:34;5.60;;;3.10;;
4963;SDS011;2497;47.410;9.740;2023-08-24T02:48:02;4.03;;;3.03;;
4963;SDS011;2497;47.410;9.740;2023-08-24T02:50:32;5.23;;;3.50;;
4963;SDS011;2497;47.410;9.740;2023-08-24T02:52:59;6.80;;;3.67;;
4963;SDS011;2497;47.410;9.740;2023-08-24T02:55:31;6.73;;;3.43;;
4963;SDS011;2497;47.410;9.740;2023-08-24T02:57:59;5.50;;;3.33;;
4963;SDS011;2497;47.410;9.740;2023-08-24T03:00:29;7.60;;;3.80;;
4963;SDS011;2497;47.410;9.740;2023-08-24T03:02:56;4.73;;;3.30;;
4963;SDS011;2497;47.410;9.740;2023-08-24T03:05:25;4.60;;;2.77;;
4963;SDS011;2497;47.410;9.740;2023-08-24T03:07:52;5.83;;;3.20;;
4963;SDS011;2497;47.410;9.740;2023-08-24T03:10:19;6.17;;;3.73;;
4963;SDS011;2497;47.410;9.740;2023-08-24T03:12:46;6.93;;;3.40;;
4963;SDS011;2497;47.410;9.740;2023-08-24T03:15:16;5.80;;;3.07;;
4963;SDS011;2497;47.410;9.740;2023-08-24T03:17:43;4.43;;;2.73;;
4963;SDS011;2497;47.410;9.740;2023-08-24T03:20:10;7.33;;;3.17;;
4963;SDS011;2497;47.410;9.740;2023-08-24T03:22:40;4.30;;;3.00;;
4963;SDS011;2497;47.410;9.740;2023-08-24T03:25:07;6.77;;;3.67;;
4963;SDS011;2497;47.410;9.740;2023-08-24T03:27:36;5.93;;;2.83;;
4963;SDS011;2497;47.410;9.740;2023-08-24T03:30:04;7.33;;;3.07;;
4963;SDS011;2497;47.410;9.740;2023-08-24T03:32:32;5.37;;;3.20;;
4963;SDS011;2497;47.410;9.740;2023-08-24T03:35:00;12.17;;;3.17;;
4963;SDS011;2497;47.410;9.740;2023-08-24T03:37:28;4.53;;;2.83;;
4963;SDS011;2497;47.410;9.740;2023-08-24T03:39:56;5.00;;;3.10;;
4963;SDS011;2497;47.410;9.740;2023-08-24T03:42:23;6.00;;;3.17;;
4963;SDS011;2497;47.410;9.740;2023-08-24T03:44:51;5.03;;;2.97;;
4963;SDS011;2497;47.410;9.740;2023-08-24T03:47:18;5.20;;;2.70;;
4963;SDS011;2497;47.410;9.740;2023-08-24T03:49:48;4.80;;;2.70;;
4963;SDS011;2497;47.410;9.740;2023-08-24T03:52:15;4.60;;;2.63;;
4963;SDS011;2497;47.410;9.740;2023-08-24T03:54:42;9.33;;;3.73;;
4963;SDS011;2497;47.410;9.740;2023-08-24T03:57:14;4.73;;;2.80;;
4963;SDS011;2497;47.410;9.740;2023-08-24T03:59:44;7.23;;;3.10;;
4963;SDS011;2497;47.410;9.740;2023-08-24T04:02:15;5.37;;;2.83;;
4963;SDS011;2497;47.410;9.740;2023-08-24T04:04:43;5.53;;;3.20;;
4963;SDS011;2497;47.410;9.740;2023-08-24T04:07:10;6.30;;;2.77;;
4963;SDS011;2497;47.410;9.740;2023-08-24T04:09:40;14.50;;;2.63;;
4963;SDS011;2497;47.410;9.740;2023-08-24T04:12:07;5.40;;;2.60;;
4963;SDS011;2497;47.410;9.740;2023-08-24T04:14:36;5.13;;;2.77;;
4963;SDS011;2497;47.410;9.740;2023-08-24T04:17:03;14.70;;;2.77;;
4963;SDS011;2497;47.410;9.740;2023-08-24T04:19:31;3.33;;;2.50;;
4963;SDS011;2497;47.410;9.740;2023-08-24T04:22:03;4.33;;;3.00;;
4963;SDS011;2497;47.410;9.740;2023-08-24T04:24:31;4.03;;;2.30;;
4963;SDS011;2497;47.410;9.740;2023-08-24T04:26:58;7.00;;;2.70;;
4963;SDS011;2497;47.410;9.740;2023-08-24T04:29:25;9.70;;;3.27;;
4963;SDS011;2497;47.410;9.740;2023-08-24T04:31:55;5.90;;;2.50;;
4963;SDS011;2497;47.410;9.740;2023-08-24T04:34:22;3.80;;;2.80;;
4963;SDS011;2497;47.410;9.740;2023-08-24T04:36:49;8.03;;;3.20;;
4963;SDS011;2497;47.410;9.740;2023-08-24T04:39:18;8.07;;;3.67;;
4963;SDS011;2497;47.410;9.740;2023-08-24T04:41:46;7.47;;;3.07;;
4963;SDS011;2497;47.410;9.740;2023-08-24T04:44:12;9.47;;;3.50;;
4963;SDS011;2497;47.410;9.740;2023-08-24T04:46:39;11.67;;;3.80;;
4963;SDS011;2497;47.410;9.740;2023-08-24T04:49:10;10.70;;;3.37;;
4963;SDS011;2497;47.410;9.740;2023-08-24T04:51:38;11.30;;;2.83;;
4963;SDS011;2497;47.410;9.740;2023-08-24T04:54:05;4.40;;;2.90;;
4963;SDS011;2497;47.410;9.740;2023-08-24T04:56:32;11.93;;;3.83;;
4963;SDS011;2497;47.410;9.740;2023-08-24T04:58:59;9.53;;;3.70;;
4963;SDS011;2497;47.410;9.740;2023-08-24T05:01:27;10.37;;;3.20;;
4963;SDS011;2497;47.410;9.740;2023-08-24T05:03:57;4.83;;;3.00;;
4963;SDS011;2497;47.410;9.740;2023-08-24T05:06:26;12.37;;;3.30;;
4963;SDS011;2497;47.410;9.740;2023-08-24T05:08:54;3.60;;;2.73;;
4963;SDS011;2497;47.410;9.740;2023-08-24T05:11:22;5.60;;;3.00;;
4963;SDS011;2497;47.410;9.740;2023-08-24T05:13:54;13.40;;;3.07;;
4963;SDS011;2497;47.410;9.740;2023-08-24T05:16:30;7.70;;;2.40;;
4963;SDS011;2497;47.410;9.740;2023-08-24T05:18:57;4.07;;;2.30;;
4963;SDS011;2497;47.410;9.740;2023-08-24T05:21:29;3.93;;;2.30;;
4963;SDS011;2497;47.410;9.740;2023-08-24T05:23:56;4.27;;;2.33;;
4963;SDS011;2497;47.410;9.740;2023-08-24T05:26:26;3.77;;;2.40;;
4963;SDS011;2497;47.410;9.740;2023-08-24T05:28:53;6.17;;;3.03;;
4963;SDS011;2497;47.410;9.740;2023-08-24T05:31:20;3.93;;;2.10;;
4963;SDS011;2497;47.410;9.740;2023-08-24T05:33:50;4.30;;;2.40;;
4963;SDS011;2497;47.410;9.740;2023-08-24T05:36:17;3.67;;;2.27;;
4963;SDS011;2497;47.410;9.740;2023-08-24T05:38:48;11.93;;;3.40;;
4963;SDS011;2497;47.410;9.740;2023-08-24T05:41:20;4.20;;;2.73;;
4963;SDS011;2497;47.410;9.740;2023-08-24T05:43:47;7.40;;;2.73;;
4963;SDS011;2497;47.410;9.740;2023-08-24T05:46:13;8.77;;;3.20;;
4963;SDS011;2497;47.410;9.740;2023-08-24T05:48:40;5.30;;;2.50;;
4963;SDS011;2497;47.410;9.740;2023-08-24T05:51:10;9.13;;;2.83;;
4963;SDS011;2497;47.410;9.740;2023-08-24T05:53:37;8.50;;;2.57;;
4963;SDS011;2497;47.410;9.740;2023-08-24T05:56:08;7.60;;;2.70;;
4963;SDS011;2497;47.410;9.740;2023-08-24T05:58:35;7.63;;;2.57;;
4963;SDS011;2497;47.410;9.740;2023-08-24T06:01:03;7.53;;;2.57;;
4963;SDS011;2497;47.410;9.740;2023-08-24T06:03:31;6.83;;;2.47;;
4963;SDS011;2497;47.410;9.740;2023-08-24T06:06:02;9.07;;;2.70;;
4963;SDS011;2497;47.410;9.740;2023-08-24T06:08:29;5.73;;;2.80;;
4963;SDS011;2497;47.410;9.740;2023-08-24T06:10:59;5.30;;;2.33;;
4963;SDS011;2497;47.410;9.740;2023-08-24T06:13:30;8.13;;;2.80;;
4963;SDS011;2497;47.410;9.740;2023-08-24T06:16:00;6.37;;;2.50;;
4963;SDS011;2497;47.410;9.740;2023-08-24T06:18:27;3.97;;;2.03;;
4963;SDS011;2497;47.410;9.740;2023-08-24T06:20:55;8.20;;;2.60;;
4963;SDS011;2497;47.410;9.740;2023-08-24T06:23:22;6.03;;;2.13;;
4963;SDS011;2497;47.410;9.740;2023-08-24T06:25:52;13.70;;;2.77;;
4963;SDS011;2497;47.410;9.740;2023-08-24T06:28:19;8.50;;;2.93;;
4963;SDS011;2497;47.410;9.740;2023-08-24T06:30:47;6.97;;;2.27;;
4963;SDS011;2497;47.410;9.740;2023-08-24T06:33:16;5.17;;;2.43;;
4963;SDS011;2497;47.410;9.740;2023-08-24T06:35:43;9.87;;;2.33;;
4963;SDS011;2497;47.410;9.740;2023-08-24T06:38:10;6.23;;;2.00;;
4963;SDS011;2497;47.410;9.740;2023-08-24T06:40:40;11.50;;;3.17;;
4963;SDS011;2497;47.410;9.740;2023-08-24T06:43:07;7.80;;;2.30;;
4963;SDS011;2497;47.410;9.740;2023-08-24T06:45:34;7.23;;;3.40;;
4963;SDS011;2497;47.410;9.740;2023-08-24T06:48:03;7.93;;;3.17;;
4963;SDS011;2497;47.410;9.740;2023-08-24T06:50:32;11.40;;;3.20;;
4963;SDS011;2497;47.410;9.740;2023-08-24T06:52:59;5.50;;;3.37;;
4963;SDS011;2497;47.410;9.740;2023-08-24T06:55:29;6.13;;;3.80;;
4963;SDS011;2497;47.410;9.740;2023-08-24T06:57:56;8.90;;;3.90;;
4963;SDS011;2497;47.410;9.740;2023-08-24T07:00:23;6.23;;;3.23;;
4963;SDS011;2497;47.410;9.740;2023-08-24T07:02:53;8.40;;;3.27;;
4963;SDS011;2497;47.410;9.740;2023-08-24T07:05:27;7.30;;;2.40;;
4963;SDS011;2497;47.410;9.740;2023-08-24T07:07:54;5.40;;;2.50;;
4963;SDS011;2497;47.410;9.740;2023-08-24T07:10:21;5.77;;;2.30;;
4963;SDS011;2497;47.410;9.740;2023-08-24T07:12:56;6.83;;;2.90;;
4963;SDS011;2497;47.410;9.740;2023-08-24T07:15:26;7.07;;;3.27;;
4963;SDS011;2497;47.410;9.740;2023-08-24T07:17:53;9.40;;;3.60;;
4963;SDS011;2497;47.410;9.740;2023-08-24T07:20:20;7.50;;;2.73;;
4963;SDS011;2497;47.410;9.740;2023-08-24T07:22:48;5.77;;;2.80;;
4963;SDS011;2497;47.410;9.740;2023-08-24T07:25:16;7.67;;;3.57;;
4963;SDS011;2497;47.410;9.740;2023-08-24T07:27:44;6.03;;;3.20;;
4963;SDS011;2497;47.410;9.740;2023-08-24T07:30:11;9.13;;;3.10;;
4963;SDS011;2497;47.410;9.740;2023-08-24T07:32:39;6.40;;;3.30;;
4963;SDS011;2497;47.410;9.740;2023-08-24T07:35:06;3.90;;;2.40;;
4963;SDS011;2497;47.410;9.740;2023-08-24T07:37:42;5.27;;;2.83;;
4963;SDS011;2497;47.410;9.740;2023-08-24T07:40:11;8.70;;;3.73;;
4963;SDS011;2497;47.410;9.740;2023-08-24T07:42:45;9.23;;;3.10;;
4963;SDS011;2497;47.410;9.740;2023-08-24T07:45:13;4.70;;;2.63;;
4963;SDS011;2497;47.410;9.740;2023-08-24T07:47:43;7.73;;;2.77;;
4963;SDS011;2497;47.410;9.740;2023-08-24T07:50:10;10.60;;;2.77;;
4963;SDS011;2497;47.410;9.740;2023-08-24T07:52:38;6.10;;;2.23;;
4963;SDS011;2497;47.410;9.740;2023-08-24T07:55:06;4.70;;;2.70;;
4963;SDS011;2497;47.410;9.740;2023-08-24T07:57:35;6.07;;;3.03;;
4963;SDS011;2497;47.410;9.740;2023-08-24T08:00:03;7.50;;;2.83;;
4963;SDS011;2497;47.410;9.740;2023-08-24T08:02:33;5.60;;;3.00;;
4963;SDS011;2497;47.410;9.740;2023-08-24T08:05:00;6.40;;;3.33;;
4963;SDS011;2497;47.410;9.740;2023-08-24T08:07:28;4.43;;;3.27;;
4963;SDS011;2497;47.410;9.740;2023-08-24T08:09:55;9.10;;;3.27;;
4963;SDS011;2497;47.410;9.740;2023-08-24T08:12:22;5.93;;;3.03;;
4963;SDS011;2497;47.410;9.740;2023-08-24T08:14:51;5.87;;;3.00;;
4963;SDS011;2497;47.410;9.740;2023-08-24T08:17:21;7.70;;;3.50;;
4963;SDS011;2497;47.410;9.740;2023-08-24T08:19:49;4.57;;;3.50;;
4963;SDS011;2497;47.410;9.740;2023-08-24T08:22:20;9.57;;;3.80;;
4963;SDS011;2497;47.410;9.740;2023-08-24T08:24:47;5.27;;;3.40;;
4963;SDS011;2497;47.410;9.740;2023-08-24T08:27:15;5.13;;;3.27;;
4963;SDS011;2497;47.410;9.740;2023-08-24T08:29:45;6.57;;;3.13;;
4963;SDS011;2497;47.410;9.740;2023-08-24T08:32:13;5.27;;;3.27;;
4963;SDS011;2497;47.410;9.740;2023-08-24T08:34:40;6.40;;;2.90;;
4963;SDS011;2497;47.410;9.740;2023-08-24T08:37:07;3.97;;;2.70;;
4963;SDS011;2497;47.410;9.740;2023-08-24T08:39:34;8.70;;;3.70;;
4963;SDS011;2497;47.410;9.740;2023-08-24T08:42:04;4.67;;;3.20;;
4963;SDS011;2497;47.410;9.740;2023-08-24T08:44:37;7.60;;;2.90;;
4963;SDS011;2497;47.410;9.740;2023-08-24T08:47:05;10.87;;;4.20;;
4963;SDS011;2497;47.410;9.740;2023-08-24T08:49:34;4.53;;;2.80;;
4963;SDS011;2497;47.410;9.740;2023-08-24T08:52:02;6.27;;;3.00;;
4963;SDS011;2497;47.410;9.740;2023-08-24T08:54:30;6.93;;;4.40;;
4963;SDS011;2497;47.410;9.740;2023-08-24T08:56:58;7.10;;;5.07;;
4963;SDS011;2497;47.410;9.740;2023-08-24T08:59:25;7.57;;;4.37;;
4963;SDS011;2497;47.410;9.740;2023-08-24T09:01:55;7.70;;;5.13;;
4963;SDS011;2497;47.410;9.740;2023-08-24T09:04:23;6.30;;;4.40;;
4963;SDS011;2497;47.410;9.740;2023-08-24T09:06:55;6.10;;;4.43;;
4963;SDS011;2497;47.410;9.740;2023-08-24T09:09:22;6.30;;;4.60;;
4963;SDS011;2497;47.410;9.740;2023-08-24T09:11:50;8.33;;;5.70;;
4963;SDS011;2497;47.410;9.740;2023-08-24T09:14:17;7.97;;;5.10;;
4963;SDS011;2497;47.410;9.740;2023-08-24T09:16:47;8.90;;;5.83;;
4963;SDS011;2497;47.410;9.740;2023-08-24T09:19:15;10.30;;;5.63;;
4963;SDS011;2497;47.410;9.740;2023-08-24T09:21:42;7.93;;;5.33;;
4963;SDS011;2497;47.410;9.740;2023-08-24T09:24:17;10.30;;;5.83;;
4963;SDS011;2497;47.410;9.740;2023-08-24T09:26:44;11.03;;;5.17;;
4963;SDS011;2497;47.410;9.740;2023-08-24T09:29:11;7.40;;;5.70;;
4963;SDS011;2497;47.410;9.740;2023-08-24T09:31:39;7.67;;;5.93;;
4963;SDS011;2497;47.410;9.740;2023-08-24T09:34:09;6.63;;;5.47;;
4963;SDS011;2497;47.410;9.740;2023-08-24T09:36:39;8.47;;;5.57;;
4963;SDS011;2497;47.410;9.740;2023-08-24T09:39:07;8.37;;;5.50;;
4963;SDS011;2497;47.410;9.740;2023-08-24T09:41:38;7.40;;;5.90;;
4963;SDS011;2497;47.410;9.740;2023-08-24T09:44:06;10.70;;;5.03;;
4963;SDS011;2497;47.410;9.740;2023-08-24T09:46:34;11.70;;;5.77;;
4963;SDS011;2497;47.410;9.740;2023-08-24T09:49:04;12.00;;;5.50;;
4963;SDS011;2497;47.410;9.740;2023-08-24T09:51:33;7.33;;;4.80;;
4963;SDS011;2497;47.410;9.740;2023-08-24T09:54:02;9.67;;;5.80;;
4963;SDS011;2497;47.410;9.740;2023-08-24T09:56:34;9.90;;;6.27;;
4963;SDS011;2497;47.410;9.740;2023-08-24T09:59:07;16.73;;;5.80;;
4963;SDS011;2497;47.410;9.740;2023-08-24T10:01:39;9.93;;;5.23;;
4963;SDS011;2497;47.410;9.740;2023-08-24T10:04:12;5.80;;;5.10;;
4963;SDS011;2497;47.410;9.740;2023-08-24T10:06:40;7.60;;;5.67;;
4963;SDS011;2497;47.410;9.740;2023-08-24T10:09:11;9.87;;;6.10;;
4963;SDS011;2497;47.410;9.740;2023-08-24T10:11:49;7.50;;;5.00;;
4963;SDS011;2497;47.410;9.740;2023-08-24T10:14:29;6.60;;;4.87;;
4963;SDS011;2497;47.410;9.740;2023-08-24T10:17:05;9.37;;;5.43;;
4963;SDS011;2497;47.410;9.740;2023-08-24T10:19:36;5.03;;;4.27;;
4963;SDS011;2497;47.410;9.740;2023-08-24T10:22:04;7.90;;;5.20;;
4963;SDS011;2497;47.410;9.740;2023-08-24T10:24:35;10.23;;;5.03;;
4963;SDS011;2497;47.410;9.740;2023-08-24T10:27:07;6.20;;;4.10;;
4963;SDS011;2497;47.410;9.740;2023-08-24T10:29:37;7.23;;;4.37;;
4963;SDS011;2497;47.410;9.740;2023-08-24T10:32:04;6.80;;;4.53;;
4963;SDS011;2497;47.410;9.740;2023-08-24T10:34:33;8.07;;;4.30;;
4963;SDS011;2497;47.410;9.740;2023-08-24T10:37:06;7.50;;;4.00;;
4963;SDS011;2497;47.410;9.740;2023-08-24T10:39:38;5.53;;;4.60;;
4963;SDS011;2497;47.410;9.740;2023-08-24T10:42:10;6.60;;;4.30;;
4963;SDS011;2497;47.410;9.740;2023-08-24T10:44:47;5.43;;;3.93;;
4963;SDS011;2497;47.410;9.740;2023-08-24T10:47:17;7.10;;;4.13;;
4963;SDS011;2497;47.410;9.740;2023-08-24T10:49:58;7.30;;;4.33;;
4963;SDS011;2497;47.410;9.740;2023-08-24T10:52:29;4.70;;;3.93;;
4963;SDS011;2497;47.410;9.740;2023-08-24T10:55:00;4.80;;;3.90;;
4963;SDS011;2497;47.410;9.740;2023-08-24T10:57:34;4.63;;;3.80;;
4963;SDS011;2497;47.410;9.740;2023-08-24T11:00:05;4.17;;;3.77;;
4963;SDS011;2497;47.410;9.740;2023-08-24T11:02:43;5.93;;;3.60;;
4963;SDS011;2497;47.410;9.740;2023-08-24T11:05:16;10.80;;;4.20;;
4963;SDS011;2497;47.410;9.740;2023-08-24T11:07:48;7.43;;;4.10;;
4963;SDS011;2497;47.410;9.740;2023-08-24T11:10:16;6.30;;;3.77;;
4963;SDS011;2497;47.410;9.740;2023-08-24T11:15:42;5.53;;;3.43;;
4963;SDS011;2497;47.410;9.740;2023-08-24T11:21:06;3.90;;;3.50;;
4963;SDS011;2497;47.410;9.740;2023-08-24T11:23:33;6.97;;;3.70;;
4963;SDS011;2497;47.410;9.740;2023-08-24T11:26:01;4.83;;;3.90;;
4963;SDS011;2497;47.410;9.740;2023-08-24T11:28:29;5.47;;;4.13;;
4963;SDS011;2497;47.410;9.740;2023-08-24T11:30:58;6.47;;;4.10;;
4963;SDS011;2497;47.410;9.740;2023-08-24T11:33:26;8.60;;;4.40;;
4963;SDS011;2497;47.410;9.740;2023-08-24T11:35:56;6.67;;;4.37;;
4963;SDS011;2497;47.410;9.740;2023-08-24T11:38:23;7.17;;;4.27;;
4963;SDS011;2497;47.410;9.740;2023-08-24T11:40:50;6.13;;;4.50;;
4963;SDS011;2497;47.410;9.740;2023-08-24T11:43:22;9.17;;;4.30;;
4963;SDS011;2497;47.410;9.740;2023-08-24T11:45:51;5.23;;;3.93;;
4963;SDS011;2497;47.410;9.740;2023-08-24T11:48:19;5.10;;;3.90;;
4963;SDS011;2497;47.410;9.740;2023-08-24T11:50:51;5.63;;;4.00;;
4963;SDS011;2497;47.410;9.740;2023-08-24T11:53:19;5.07;;;3.90;;
4963;SDS011;2497;47.410;9.740;2023-08-24T11:55:49;5.50;;;4.20;;
4963;SDS011;2497;47.410;9.740;2023-08-24T11:58:21;4.70;;;3.80;;
4963;SDS011;2497;47.410;9.740;2023-08-24T12:00:48;7.03;;;3.70;;
4963;SDS011;2497;47.410;9.740;2023-08-24T12:03:15;5.43;;;3.70;;
4963;SDS011;2497;47.410;9.740;2023-08-24T12:05:44;6.50;;;4.10;;
4963;SDS011;2497;47.410;9.740;2023-08-24T12:08:11;5.33;;;4.03;;
4963;SDS011;2497;47.410;9.740;2023-08-24T12:10:42;4.73;;;4.13;;
4963;SDS011;2497;47.410;9.740;2023-08-24T12:13:11;8.17;;;4.40;;
4963;SDS011;2497;47.410;9.740;2023-08-24T12:15:40;5.37;;;4.00;;
4963;SDS011;2497;47.410;9.740;2023-08-24T12:18:08;5.97;;;4.17;;
4963;SDS011;2497;47.410;9.740;2023-08-24T12:20:36;4.10;;;3.43;;
4963;SDS011;2497;47.410;9.740;2023-08-24T12:23:05;6.77;;;3.70;;
4963;SDS011;2497;47.410;9.740;2023-08-24T12:25:35;4.40;;;3.67;;
4963;SDS011;2497;47.410;9.740;2023-08-24T12:28:10;5.30;;;3.70;;
4963;SDS011;2497;47.410;9.740;2023-08-24T12:30:45;7.20;;;4.30;;
4963;SDS011;2497;47.410;9.740;2023-08-24T12:33:23;4.57;;;3.80;;
4963;SDS011;2497;47.410;9.740;2023-08-24T12:35:50;5.37;;;4.43;;
4963;SDS011;2497;47.410;9.740;2023-08-24T12:38:19;8.67;;;4.30;;
4963;SDS011;2497;47.410;9.740;2023-08-24T12:40:46;6.40;;;3.97;;
4963;SDS011;2497;47.410;9.740;2023-08-24T12:43:13;6.00;;;4.50;;
4963;SDS011;2497;47.410;9.740;2023-08-24T12:45:41;6.23;;;4.40;;
4963;SDS011;2497;47.410;9.740;2023-08-24T12:48:08;5.07;;;4.57;;
4963;SDS011;2497;47.410;9.740;2023-08-24T12:50:36;7.07;;;4.10;;
4963;SDS011;2497;47.410;9.740;2023-08-24T12:53:04;7.80;;;4.00;;
4963;SDS011;2497;47.410;9.740;2023-08-24T12:55:34;5.30;;;4.20;;
4963;SDS011;2497;47.410;9.740;2023-08-24T12:58:02;7.17;;;3.90;;
4963;SDS011;2497;47.410;9.740;2023-08-24T13:00:29;9.40;;;4.20;;
4963;SDS011;2497;47.410;9.740;2023-08-24T13:02:56;5.10;;;4.00;;
4963;SDS011;2497;47.410;9.740;2023-08-24T13:05:23;5.63;;;4.07;;
4963;SDS011;2497;47.410;9.740;2023-08-24T13:07:52;4.00;;;3.60;;
4963;SDS011;2497;47.410;9.740;2023-08-24T13:10:20;5.17;;;3.57;;
4963;SDS011;2497;47.410;9.740;2023-08-24T13:12:48;9.10;;;4.67;;
4963;SDS011;2497;47.410;9.740;2023-08-24T13:15:15;4.40;;;4.00;;
4963;SDS011;2497;47.410;9.740;2023-08-24T13:17:42;11.00;;;4.80;;
4963;SDS011;2497;47.410;9.740;2023-08-24T13:20:10;7.47;;;3.80;;
4963;SDS011;2497;47.410;9.740;2023-08-24T13:22:37;9.00;;;3.70;;
4963;SDS011;2497;47.410;9.740;2023-08-24T13:25:04;5.43;;;3.73;;
4963;SDS011;2497;47.410;9.740;2023-08-24T13:27:32;7.00;;;3.87;;
4963;SDS011;2497;47.410;9.740;2023-08-24T13:30:04;5.10;;;3.70;;
4963;SDS011;2497;47.410;9.740;2023-08-24T13:32:32;4.97;;;3.70;;
4963;SDS011;2497;47.410;9.740;2023-08-24T13:35:00;8.50;;;4.37;;
4963;SDS011;2497;47.410;9.740;2023-08-24T13:37:27;5.27;;;3.93;;
4963;SDS011;2497;47.410;9.740;2023-08-24T13:39:54;6.70;;;4.20;;
4963;SDS011;2497;47.410;9.740;2023-08-24T13:42:21;5.93;;;3.83;;
4963;SDS011;2497;47.410;9.740;2023-08-24T13:44:48;6.93;;;4.07;;
4963;SDS011;2497;47.410;9.740;2023-08-24T13:47:17;6.53;;;3.80;;
4963;SDS011;2497;47.410;9.740;2023-08-24T13:49:46;4.67;;;3.93;;
4963;SDS011;2497;47.410;9.740;2023-08-24T13:52:13;7.63;;;4.03;;
4963;SDS011;2497;47.410;9.740;2023-08-24T13:54:41;9.33;;;4.20;;
4963;SDS011;2497;47.410;9.740;2023-08-24T13:57:09;6.67;;;4.10;;
4963;SDS011;2497;47.410;9.740;2023-08-24T13:59:36;6.33;;;3.70;;
4963;SDS011;2497;47.410;9.740;2023-08-24T14:02:04;5.20;;;4.03;;
4963;SDS011;2497;47.410;9.740;2023-08-24T14:04:33;6.10;;;4.50;;
4963;SDS011;2497;47.410;9.740;2023-08-24T14:07:00;6.70;;;4.40;;
4963;SDS011;2497;47.410;9.740;2023-08-24T14:09:27;5.67;;;3.77;;
4963;SDS011;2497;47.410;9.740;2023-08-24T14:11:54;11.23;;;5.17;;
4963;SDS011;2497;47.410;9.740;2023-08-24T14:14:21;8.33;;;4.13;;
4963;SDS011;2497;47.410;9.740;2023-08-24T14:16:49;5.60;;;4.37;;
4963;SDS011;2497;47.410;9.740;2023-08-24T14:19:20;6.90;;;4.60;;
4963;SDS011;2497;47.410;9.740;2023-08-24T14:21:48;4.67;;;3.90;;
4963;SDS011;2497;47.410;9.740;2023-08-24T14:24:16;11.73;;;4.60;;
4963;SDS011;2497;47.410;9.740;2023-08-24T14:26:43;6.93;;;4.47;;
4963;SDS011;2497;47.410;9.740;2023-08-24T14:29:11;4.03;;;3.53;;
4963;SDS011;2497;47.410;9.740;2023-08-24T14:31:39;4.27;;;3.77;;
4963;SDS011;2497;47.410;9.740;2023-08-24T14:34:07;7.80;;;4.50;;
4963;SDS011;2497;47.410;9.740;2023-08-24T14:36:34;7.97;;;3.70;;
4963;SDS011;2497;47.410;9.740;2023-08-24T14:39:03;7.13;;;3.87;;
4963;SDS011;2497;47.410;9.740;2023-08-24T14:41:30;7.73;;;4.40;;
4963;SDS011;2497;47.410;9.740;2023-08-24T14:43:57;7.20;;;3.60;;
4963;SDS011;2497;47.410;9.740;2023-08-24T14:46:45;7.03;;;3.90;;
4963;SDS011;2497;47.410;9.740;2023-08-24T14:49:12;8.03;;;4.10;;
4963;SDS011;2497;47.410;9.740;2023-08-24T14:51:50;6.80;;;4.13;;
4963;SDS011;2497;47.410;9.740;2023-08-24T14:57:32;6.87;;;3.90;;
4963;SDS011;2497;47.410;9.740;2023-08-24T15:00:03;9.57;;;3.90;;
4963;SDS011;2497;47.410;9.740;2023-08-24T15:02:42;5.63;;;3.40;;
4963;SDS011;2497;47.410;9.740;2023-08-24T15:05:17;5.33;;;3.50;;
4963;SDS011;2497;47.410;9.740;2023-08-24T15:07:45;6.53;;;3.90;;
4963;SDS011;2497;47.410;9.740;2023-08-24T15:10:13;5.10;;;3.80;;
4963;SDS011;2497;47.410;9.740;2023-08-24T15:12:43;5.27;;;3.40;;
4963;SDS011;2497;47.410;9.740;2023-08-24T15:15:11;4.73;;;3.30;;
4963;SDS011;2497;47.410;9.740;2023-08-24T15:17:42;4.70;;;3.63;;
4963;SDS011;2497;47.410;9.740;2023-08-24T15:20:10;6.43;;;3.60;;
4963;SDS011;2497;47.410;9.740;2023-08-24T15:22:38;4.30;;;3.50;;
4963;SDS011;2497;47.410;9.740;2023-08-24T15:25:06;8.90;;;3.30;;
4963;SDS011;2497;47.410;9.740;2023-08-24T15:27:35;3.77;;;3.40;;
4963;SDS011;2497;47.410;9.740;2023-08-24T15:30:03;7.83;;;4.00;;
4963;SDS011;2497;47.410;9.740;2023-08-24T15:32:31;9.17;;;3.97;;
4963;SDS011;2497;47.410;9.740;2023-08-24T15:34:58;7.50;;;3.90;;